Gloster-1 — E5U2812 — position and weather

sailwx.info

Track history (hours):
 
Tides and Currents Weather Stations Pressure Air Temp Water Temp Dewpoint Dewpoint Depression Visibility Wind Speed Wind Dir Waves Ship Positions

Gloster-1

Last reported at 2018-Jun-20 11:28 UTC. Time now 2018-Jun-20 11:38 UTC.
Position N 45°23' E 037°20'.

Length 118 m; draft 3.5 m.

Type: Ship. MMSI: 518865000.

Date/timePositionNaut miles runAvg speedWind from/ knotsBaromVisibWave heightAir tempDewpointWater temp
2018-Jun-20 11:28N 45°23' E 037°20'0 0.0
2018-Jun-20 07:22N 45°23' E 037°20'0 0.0
2018-Jun-20 06:43N 45°23' E 037°20'0 0.0
2018-Jun-20 05:10N 45°23' E 037°20'0 0.0
2018-Jun-20 04:55N 45°23' E 037°20'0 0.0
2018-Jun-20 04:28N 45°23' E 037°20'0 0.0
2018-Jun-20 03:55N 45°23' E 037°20'23 0.5
2018-Jun-18 02:00N 45°28' E 036°47'4 7.9
2018-Jun-18 01:28N 45°26' E 036°42'4 8.6
2018-Jun-18 01:00N 45°22' E 036°41'3 6.5
2018-Jun-18 00:30N 45°20' E 036°37'4 7.3
2018-Jun-18 00:00N 45°19' E 036°32'4 6.9
2018-Jun-17 23:27N 45°16' E 036°29'171 5.4
2018-Jun-16 15:49N 45°03' E 032°27'94 8.8
2018-Jun-16 05:12N 46°13' E 030°57'3 8.5
2018-Jun-16 04:49N 46°15' E 030°53'3 8.4
2018-Jun-16 04:26N 46°16' E 030°50'4 8.6
2018-Jun-16 04:00N 46°18' E 030°45'4 1.2
2018-Jun-16 00:47N 46°20' E 030°40'0 0.0
2018-Jun-16 00:02N 46°20' E 030°40'0 0.0
2018-Jun-15 23:59N 46°20' E 030°40'0 0.0
2018-Jun-15 23:02N 46°20' E 030°40'0 0.0
2018-Jun-15 23:01N 46°20' E 030°40'0 0.0
2018-Jun-15 19:45N 46°20' E 030°40'0 0.0
2018-Jun-15 17:48N 46°20' E 030°40'0 0.0
2018-Jun-15 15:00N 46°20' E 030°40'0 0.0
2018-Jun-15 13:00N 46°20' E 030°40'0 0.0
2018-Jun-15 11:00N 46°20' E 030°40'0 0.0
2018-Jun-15 08:57N 46°20' E 030°40'0 0.0
2018-Jun-15 04:51N 46°20' E 030°40'0 0.0
2018-Jun-15 03:00N 46°20' E 030°40'0 0.0
2018-Jun-15 01:51N 46°20' E 030°40'0 0.0
2018-Jun-15 01:00N 46°20' E 030°40'0 0.0
2018-Jun-14 19:54N 46°20' E 030°40'0 0.0
2018-Jun-14 16:00N 46°20' E 030°40'0 0.0
2018-Jun-14 15:00N 46°20' E 030°40'0 0.0
2018-Jun-14 13:57N 46°20' E 030°40'0 0.0
2018-Jun-14 06:50N 46°20' E 030°40'0 1.4
2018-Jun-14 06:29N 46°19' E 030°40'3 5.5
2018-Jun-14 06:00N 46°17' E 030°43'1 1.3
2018-Jun-14 05:03N 46°17' E 030°44'0 0.0
2018-Jun-14 04:57N 46°17' E 030°44'0 0.0
2018-Jun-14 04:30N 46°17' E 030°44'0 0.0
2018-Jun-14 04:00N 46°17' E 030°44'0 0.0
2018-Jun-14 03:30N 46°17' E 030°44'0 0.0
2018-Jun-14 03:00N 46°17' E 030°44'2 4.1
2018-Jun-14 02:30N 46°15' E 030°45'4 8.6
2018-Jun-14 01:59N 46°10' E 030°46'4 8.4
2018-Jun-14 01:29N 46°06' E 030°46'4 8.3
2018-Jun-14 01:00N 46°02' E 030°47'4 7.7
2018-Jun-14 00:29N 45°58' E 030°45'4 8.5
2018-Jun-14 00:00N 45°55' E 030°41'4 8.7
2018-Jun-13 23:29N 45°51' E 030°38'5 9.1
2018-Jun-13 22:59N 45°47' E 030°35'5 9.9
2018-Jun-13 22:30N 45°43' E 030°31'5 9.6
2018-Jun-13 22:00N 45°39' E 030°27'5 9.6
2018-Jun-13 21:28N 45°35' E 030°23'5 9.5
2018-Jun-13 20:57N 45°31' E 030°20'4 9.1
2018-Jun-13 20:30N 45°27' E 030°17'4 8.4
2018-Jun-13 19:58N 45°23' E 030°13'4 8.3
2018-Jun-13 19:29N 45°20' E 030°10'4 8.3
2018-Jun-13 19:00N 45°17' E 030°07'4 8.3
2018-Jun-13 18:30N 45°13' E 030°05'4 8.7
2018-Jun-13 17:59N 45°08' E 030°04'4 8.7
2018-Jun-13 17:30N 45°04' E 030°03'4 8.2
2018-Jun-13 17:00N 45°00' E 030°02'0 0.3
2018-Jun-13 16:24N 45°00' E 030°02'0 0.0
2018-Jun-13 16:00N 45°00' E 030°02'0 0.0
2018-Jun-13 15:00N 45°00' E 030°02'0 0.0
2018-Jun-13 14:30N 45°00' E 030°02'0 0.0
2018-Jun-13 13:45N 45°00' E 030°02'0 0.0
2018-Jun-13 13:30N 45°00' E 030°02'0 0.0
2018-Jun-13 12:51N 45°00' E 030°02'0 0.0
2018-Jun-13 12:30N 45°00' E 030°02'0 0.0
2018-Jun-13 12:00N 45°00' E 030°02'0 0.0
2018-Jun-13 11:27N 45°00' E 030°02'0 0.0
2018-Jun-13 11:00N 45°00' E 030°02'0 0.0
2018-Jun-13 10:30N 45°00' E 030°02'0 0.0
2018-Jun-13 09:57N 45°00' E 030°02'0 0.0
2018-Jun-13 09:30N 45°00' E 030°02'0 0.0
2018-Jun-13 09:00N 45°00' E 030°02'0 0.0
2018-Jun-13 08:18N 45°00' E 030°02'0 0.2
2018-Jun-13 07:59N 45°00' E 030°02'4 7.8
2018-Jun-13 07:29N 44°56' E 030°01'4 9.1
2018-Jun-13 07:00N 44°52' E 030°00'5 9.2
2018-Jun-13 06:30N 44°47' E 029°60'7 9.2
2018-Jun-13 05:45N 44°40' E 029°58'4 9.4
2018-Jun-13 05:17N 44°36' E 029°57'3 9.3
2018-Jun-13 04:58N 44°33' E 029°57'4 9.1
2018-Jun-13 04:30N 44°29' E 029°56'4 9.0
2018-Jun-13 04:00N 44°25' E 029°55'4 9.2
2018-Jun-13 03:30N 44°20' E 029°54'5 9.0
2018-Jun-13 03:00N 44°16' E 029°53'5 9.1
2018-Jun-13 02:29N 44°11' E 029°52'4 9.1
2018-Jun-13 02:00N 44°07' E 029°51'5 9.1
2018-Jun-13 01:29N 44°02' E 029°50'4 9.0
2018-Jun-13 01:00N 43°58' E 029°49'5 9.1
2018-Jun-13 00:30N 43°53' E 029°48'5 9.2
2018-Jun-13 00:00N 43°49' E 029°46'4 9.1
2018-Jun-12 23:30N 43°44' E 029°45'4 8.7
2018-Jun-12 23:00N 43°40' E 029°44'4 8.6
2018-Jun-12 22:31N 43°36' E 029°44'4 8.6
2018-Jun-12 22:00N 43°31' E 029°42'4 8.9
2018-Jun-12 21:30N 43°27' E 029°41'5 9.0
2018-Jun-12 21:00N 43°23' E 029°40'4 9.0
2018-Jun-12 20:30N 43°18' E 029°39'5 9.1
2018-Jun-12 19:59N 43°14' E 029°38'5 9.1
2018-Jun-12 19:29N 43°09' E 029°37'4 9.2
2018-Jun-12 19:00N 43°05' E 029°36'5 9.2
2018-Jun-12 18:30N 43°00' E 029°35'15 9.5
2018-Jun-12 16:56N 42°45' E 029°32'4 9.6
2018-Jun-12 16:30N 42°41' E 029°31'5 9.5
2018-Jun-12 16:00N 42°37' E 029°30'5 9.6
2018-Jun-12 15:30N 42°32' E 029°29'6 9.7
2018-Jun-12 14:55N 42°26' E 029°28'4 9.6
2018-Jun-12 14:30N 42°22' E 029°27'5 9.5
2018-Jun-12 13:58N 42°17' E 029°26'4 9.3
2018-Jun-12 13:30N 42°13' E 029°25'7 9.2
2018-Jun-12 12:48N 42°07' E 029°23'3 8.9
2018-Jun-12 12:28N 42°04' E 029°23'  
Track history (hours):
 
Tides and Currents Weather Stations Pressure Air Temp Water Temp Dewpoint Dewpoint Depression Visibility Wind Speed Wind Dir Waves Ship Positions

Gloster-1

Last reported at 2018-Jun-20 11:28 UTC. Time now 2018-Jun-20 11:38 UTC.
Position N 45°23' E 037°20'.

Length 118 m; draft 3.5 m.

Type: Ship. MMSI: 518865000.

Date/timePositionNaut miles runAvg speedWind from/ knotsBaromVisibWave heightAir tempDewpointWater temp
2018-Jun-20 11:28N 45°23' E 037°20'0 0.0
2018-Jun-20 07:22N 45°23' E 037°20'0 0.0
2018-Jun-20 06:43N 45°23' E 037°20'0 0.0
2018-Jun-20 05:10N 45°23' E 037°20'0 0.0
2018-Jun-20 04:55N 45°23' E 037°20'0 0.0
2018-Jun-20 04:28N 45°23' E 037°20'0 0.0
2018-Jun-20 03:55N 45°23' E 037°20'23 0.5
2018-Jun-18 02:00N 45°28' E 036°47'4 7.9
2018-Jun-18 01:28N 45°26' E 036°42'4 8.6
2018-Jun-18 01:00N 45°22' E 036°41'3 6.5
2018-Jun-18 00:30N 45°20' E 036°37'4 7.3
2018-Jun-18 00:00N 45°19' E 036°32'4 6.9
2018-Jun-17 23:27N 45°16' E 036°29'171 5.4
2018-Jun-16 15:49N 45°03' E 032°27'94 8.8
2018-Jun-16 05:12N 46°13' E 030°57'3 8.5
2018-Jun-16 04:49N 46°15' E 030°53'3 8.4
2018-Jun-16 04:26N 46°16' E 030°50'4 8.6
2018-Jun-16 04:00N 46°18' E 030°45'4 1.2
2018-Jun-16 00:47N 46°20' E 030°40'0 0.0
2018-Jun-16 00:02N 46°20' E 030°40'0 0.0
2018-Jun-15 23:59N 46°20' E 030°40'0 0.0
2018-Jun-15 23:02N 46°20' E 030°40'0 0.0
2018-Jun-15 23:01N 46°20' E 030°40'0 0.0
2018-Jun-15 19:45N 46°20' E 030°40'0 0.0
2018-Jun-15 17:48N 46°20' E 030°40'0 0.0
2018-Jun-15 15:00N 46°20' E 030°40'0 0.0
2018-Jun-15 13:00N 46°20' E 030°40'0 0.0
2018-Jun-15 11:00N 46°20' E 030°40'0 0.0
2018-Jun-15 08:57N 46°20' E 030°40'0 0.0
2018-Jun-15 04:51N 46°20' E 030°40'0 0.0
2018-Jun-15 03:00N 46°20' E 030°40'0 0.0
2018-Jun-15 01:51N 46°20' E 030°40'0 0.0
2018-Jun-15 01:00N 46°20' E 030°40'0 0.0
2018-Jun-14 19:54N 46°20' E 030°40'0 0.0
2018-Jun-14 16:00N 46°20' E 030°40'0 0.0
2018-Jun-14 15:00N 46°20' E 030°40'0 0.0
2018-Jun-14 13:57N 46°20' E 030°40'0 0.0
2018-Jun-14 06:50N 46°20' E 030°40'0 1.4
2018-Jun-14 06:29N 46°19' E 030°40'3 5.5
2018-Jun-14 06:00N 46°17' E 030°43'1 1.3
2018-Jun-14 05:03N 46°17' E 030°44'0 0.0
2018-Jun-14 04:57N 46°17' E 030°44'0 0.0
2018-Jun-14 04:30N 46°17' E 030°44'0 0.0
2018-Jun-14 04:00N 46°17' E 030°44'0 0.0
2018-Jun-14 03:30N 46°17' E 030°44'0 0.0
2018-Jun-14 03:00N 46°17' E 030°44'2 4.1
2018-Jun-14 02:30N 46°15' E 030°45'4 8.6
2018-Jun-14 01:59N 46°10' E 030°46'4 8.4
2018-Jun-14 01:29N 46°06' E 030°46'4 8.3
2018-Jun-14 01:00N 46°02' E 030°47'4 7.7
2018-Jun-14 00:29N 45°58' E 030°45'4 8.5
2018-Jun-14 00:00N 45°55' E 030°41'4 8.7
2018-Jun-13 23:29N 45°51' E 030°38'5 9.1
2018-Jun-13 22:59N 45°47' E 030°35'5 9.9
2018-Jun-13 22:30N 45°43' E 030°31'5 9.6
2018-Jun-13 22:00N 45°39' E 030°27'5 9.6
2018-Jun-13 21:28N 45°35' E 030°23'5 9.5
2018-Jun-13 20:57N 45°31' E 030°20'4 9.1
2018-Jun-13 20:30N 45°27' E 030°17'4 8.4
2018-Jun-13 19:58N 45°23' E 030°13'4 8.3
2018-Jun-13 19:29N 45°20' E 030°10'4 8.3
2018-Jun-13 19:00N 45°17' E 030°07'4 8.3
2018-Jun-13 18:30N 45°13' E 030°05'4 8.7
2018-Jun-13 17:59N 45°08' E 030°04'4 8.7
2018-Jun-13 17:30N 45°04' E 030°03'4 8.2
2018-Jun-13 17:00N 45°00' E 030°02'0 0.3
2018-Jun-13 16:24N 45°00' E 030°02'0 0.0
2018-Jun-13 16:00N 45°00' E 030°02'0 0.0
2018-Jun-13 15:00N 45°00' E 030°02'0 0.0
2018-Jun-13 14:30N 45°00' E 030°02'0 0.0
2018-Jun-13 13:45N 45°00' E 030°02'0 0.0
2018-Jun-13 13:30N 45°00' E 030°02'0 0.0
2018-Jun-13 12:51N 45°00' E 030°02'0 0.0
2018-Jun-13 12:30N 45°00' E 030°02'0 0.0
2018-Jun-13 12:00N 45°00' E 030°02'0 0.0
2018-Jun-13 11:27N 45°00' E 030°02'0 0.0
2018-Jun-13 11:00N 45°00' E 030°02'0 0.0
2018-Jun-13 10:30N 45°00' E 030°02'0 0.0
2018-Jun-13 09:57N 45°00' E 030°02'0 0.0
2018-Jun-13 09:30N 45°00' E 030°02'0 0.0
2018-Jun-13 09:00N 45°00' E 030°02'0 0.0
2018-Jun-13 08:18N 45°00' E 030°02'0 0.2
2018-Jun-13 07:59N 45°00' E 030°02'4 7.8
2018-Jun-13 07:29N 44°56' E 030°01'4 9.1
2018-Jun-13 07:00N 44°52' E 030°00'5 9.2
2018-Jun-13 06:30N 44°47' E 029°60'7 9.2
2018-Jun-13 05:45N 44°40' E 029°58'4 9.4
2018-Jun-13 05:17N 44°36' E 029°57'3 9.3
2018-Jun-13 04:58N 44°33' E 029°57'4 9.1
2018-Jun-13 04:30N 44°29' E 029°56'4 9.0
2018-Jun-13 04:00N 44°25' E 029°55'4 9.2
2018-Jun-13 03:30N 44°20' E 029°54'5 9.0
2018-Jun-13 03:00N 44°16' E 029°53'5 9.1
2018-Jun-13 02:29N 44°11' E 029°52'4 9.1
2018-Jun-13 02:00N 44°07' E 029°51'5 9.1
2018-Jun-13 01:29N 44°02' E 029°50'4 9.0
2018-Jun-13 01:00N 43°58' E 029°49'5 9.1
2018-Jun-13 00:30N 43°53' E 029°48'5 9.2
2018-Jun-13 00:00N 43°49' E 029°46'4 9.1
2018-Jun-12 23:30N 43°44' E 029°45'4 8.7
2018-Jun-12 23:00N 43°40' E 029°44'4 8.6
2018-Jun-12 22:31N 43°36' E 029°44'4 8.6
2018-Jun-12 22:00N 43°31' E 029°42'4 8.9
2018-Jun-12 21:30N 43°27' E 029°41'5 9.0
2018-Jun-12 21:00N 43°23' E 029°40'4 9.0
2018-Jun-12 20:30N 43°18' E 029°39'5 9.1
2018-Jun-12 19:59N 43°14' E 029°38'5 9.1
2018-Jun-12 19:29N 43°09' E 029°37'4 9.2
2018-Jun-12 19:00N 43°05' E 029°36'5 9.2
2018-Jun-12 18:30N 43°00' E 029°35'15 9.5
2018-Jun-12 16:56N 42°45' E 029°32'4 9.6
2018-Jun-12 16:30N 42°41' E 029°31'5 9.5
2018-Jun-12 16:00N 42°37' E 029°30'5 9.6
2018-Jun-12 15:30N 42°32' E 029°29'6 9.7
2018-Jun-12 14:55N 42°26' E 029°28'4 9.6
2018-Jun-12 14:30N 42°22' E 029°27'5 9.5
2018-Jun-12 13:58N 42°17' E 029°26'4 9.3
2018-Jun-12 13:30N 42°13' E 029°25'7 9.2
2018-Jun-12 12:48N 42°07' E 029°23'3 8.9
2018-Jun-12 12:28N 42°04' E 029°23'  

Dump ship's entire track history